createdAt,value
2023-01-25T00:00:46.594Z,0
2023-01-25T00:01:46.637Z,0
2023-01-25T00:02:46.631Z,0
2023-01-25T00:03:46.603Z,0
2023-01-25T00:04:46.601Z,0
2023-01-25T00:05:46.596Z,0
2023-01-25T00:06:46.599Z,0
2023-01-25T00:07:46.597Z,0
2023-01-25T00:08:46.597Z,0
2023-01-25T00:09:46.620Z,0
2023-01-25T00:10:46.600Z,0
2023-01-25T00:11:46.599Z,0
2023-01-25T00:12:46.600Z,0
2023-01-25T00:13:46.597Z,0
2023-01-25T00:14:46.599Z,0
2023-01-25T00:15:46.597Z,0
2023-01-25T00:16:46.658Z,0
2023-01-25T00:17:46.607Z,0
2023-01-25T00:18:46.602Z,0
2023-01-25T00:19:46.608Z,0
2023-01-25T00:20:46.607Z,0
2023-01-25T00:21:46.619Z,0
2023-01-25T00:22:46.606Z,0
2023-01-25T00:23:46.670Z,0
2023-01-25T00:24:46.609Z,0
2023-01-25T00:25:46.632Z,0
2023-01-25T00:26:46.612Z,0
2023-01-25T00:27:46.614Z,0
2023-01-25T00:28:46.607Z,0
2023-01-25T00:29:46.603Z,0
2023-01-25T00:30:46.608Z,0
2023-01-25T00:31:46.772Z,0
2023-01-25T00:32:46.718Z,0
2023-01-25T00:33:46.607Z,0
2023-01-25T00:34:46.613Z,0
2023-01-25T00:35:46.607Z,0
2023-01-25T00:36:46.608Z,0
2023-01-25T00:37:46.613Z,0
2023-01-25T00:38:46.609Z,0
2023-01-25T00:39:46.614Z,0
2023-01-25T00:40:46.616Z,0
2023-01-25T00:41:46.637Z,0
2023-01-25T00:42:46.629Z,0
2023-01-25T00:43:46.613Z,0
2023-01-25T00:44:46.615Z,0
2023-01-25T00:45:46.642Z,0
2023-01-25T00:46:46.616Z,0
2023-01-25T00:47:46.616Z,0
2023-01-25T00:48:46.626Z,0
2023-01-25T00:49:46.613Z,0
2023-01-25T00:50:46.615Z,0
2023-01-25T00:51:46.616Z,0
2023-01-25T00:52:46.618Z,0
2023-01-25T00:53:46.619Z,0
2023-01-25T00:54:46.650Z,0
2023-01-25T00:55:46.622Z,0
2023-01-25T00:56:46.621Z,0
2023-01-25T00:57:46.648Z,0
2023-01-25T00:58:46.644Z,0
2023-01-25T00:59:46.626Z,0
2023-01-25T01:00:46.642Z,0
2023-01-25T01:01:46.635Z,0
2023-01-25T01:02:46.635Z,0
2023-01-25T01:03:46.631Z,0
2023-01-25T01:04:46.684Z,0
2023-01-25T01:05:46.639Z,0
2023-01-25T01:06:46.643Z,0
2023-01-25T01:07:46.640Z,0
2023-01-25T01:08:46.643Z,0
2023-01-25T01:09:46.643Z,0
2023-01-25T01:10:46.642Z,0
2023-01-25T01:11:46.640Z,0
2023-01-25T01:12:46.644Z,0
2023-01-25T01:13:46.674Z,0
2023-01-25T01:14:46.648Z,0
2023-01-25T01:15:46.646Z,0
2023-01-25T01:16:46.725Z,0
2023-01-25T01:17:46.647Z,0
2023-01-25T01:18:46.653Z,0
2023-01-25T01:19:46.652Z,0
2023-01-25T01:20:46.655Z,0
2023-01-25T01:21:46.657Z,0
2023-01-25T01:22:46.657Z,0
2023-01-25T01:23:46.682Z,0
2023-01-25T01:24:46.659Z,0
2023-01-25T01:25:46.666Z,0
2023-01-25T01:26:46.662Z,0
2023-01-25T01:27:46.671Z,0
2023-01-25T01:28:46.681Z,0
2023-01-25T01:29:46.695Z,0
2023-01-25T01:30:46.683Z,0
2023-01-25T01:31:46.753Z,0
2023-01-25T01:32:46.837Z,0
2023-01-25T01:33:46.687Z,0
2023-01-25T01:34:46.684Z,0
2023-01-25T01:35:46.693Z,0
2023-01-25T01:36:46.684Z,0
2023-01-25T01:37:46.691Z,0
2023-01-25T01:38:46.693Z,0
2023-01-25T01:39:46.696Z,0
2023-01-25T01:40:46.696Z,0
2023-01-25T01:41:46.706Z,0
2023-01-25T01:42:46.701Z,0
2023-01-25T01:43:46.710Z,0
2023-01-25T01:44:46.709Z,0
2023-01-25T01:45:46.822Z,0
2023-01-25T01:46:46.707Z,0
2023-01-25T01:47:46.705Z,0
2023-01-25T01:48:46.712Z,0
2023-01-25T01:49:46.715Z,0
2023-01-25T01:50:46.748Z,0
2023-01-25T01:51:46.730Z,0
2023-01-25T01:52:46.718Z,0
2023-01-25T01:53:46.719Z,0
2023-01-25T01:54:46.725Z,0
2023-01-25T01:55:46.726Z,0
2023-01-25T01:56:46.728Z,0
2023-01-25T01:57:46.726Z,0
2023-01-25T01:58:46.732Z,0
2023-01-25T01:59:46.735Z,0
2023-01-25T02:00:46.735Z,0
2023-01-25T02:01:46.767Z,0
2023-01-25T02:02:46.772Z,0
2023-01-25T02:03:46.739Z,0
2023-01-25T02:04:46.743Z,0
2023-01-25T02:05:46.743Z,0
2023-01-25T02:06:46.745Z,0
2023-01-25T02:07:46.750Z,0
2023-01-25T02:08:46.755Z,0
2023-01-25T02:09:46.749Z,0
2023-01-25T02:10:46.753Z,0
2023-01-25T02:11:46.751Z,0
2023-01-25T02:12:46.754Z,0
2023-01-25T02:13:46.760Z,0
2023-01-25T02:14:46.764Z,0
2023-01-25T02:15:46.780Z,0
2023-01-25T02:16:46.757Z,0
2023-01-25T02:17:46.780Z,0
2023-01-25T02:18:46.758Z,0
2023-01-25T02:19:46.766Z,0
2023-01-25T02:20:46.761Z,0
2023-01-25T02:21:46.763Z,0
2023-01-25T02:22:46.763Z,0
2023-01-25T02:23:46.820Z,0
2023-01-25T02:24:46.762Z,0
2023-01-25T02:25:46.764Z,0
2023-01-25T02:26:46.765Z,0
2023-01-25T02:27:46.765Z,0
2023-01-25T02:28:46.767Z,0
2023-01-25T02:29:46.767Z,0
2023-01-25T02:30:46.796Z,0
2023-01-25T02:31:46.878Z,0
2023-01-25T02:32:46.769Z,0
2023-01-25T02:33:46.804Z,0
2023-01-25T02:34:46.769Z,0
2023-01-25T02:35:46.776Z,0
2023-01-25T02:36:46.801Z,0
2023-01-25T02:37:46.775Z,0
2023-01-25T02:38:46.780Z,0
2023-01-25T02:39:46.784Z,0
2023-01-25T02:40:46.796Z,0
2023-01-25T02:41:46.801Z,0
2023-01-25T02:42:46.785Z,0
2023-01-25T02:43:46.789Z,0
2023-01-25T02:44:46.788Z,0
2023-01-25T02:45:46.850Z,0
2023-01-25T02:46:46.794Z,0
2023-01-25T02:47:46.795Z,0
2023-01-25T02:48:46.802Z,0
2023-01-25T02:49:46.827Z,0
2023-01-25T02:50:46.807Z,0
2023-01-25T02:51:46.804Z,0
2023-01-25T02:52:46.809Z,0
2023-01-25T02:53:46.808Z,0
2023-01-25T02:54:46.804Z,0
2023-01-25T02:55:46.809Z,0
2023-01-25T02:56:46.814Z,0
2023-01-25T02:57:46.814Z,0
2023-01-25T02:58:46.813Z,0
2023-01-25T02:59:46.817Z,0
2023-01-25T03:00:46.818Z,0
2023-01-25T03:01:46.858Z,0
2023-01-25T03:02:46.858Z,0
2023-01-25T03:03:46.820Z,0
2023-01-25T03:04:46.824Z,0
2023-01-25T03:05:46.856Z,0
2023-01-25T03:06:46.828Z,0
2023-01-25T03:07:46.829Z,0
2023-01-25T03:08:46.828Z,0
2023-01-25T03:09:46.830Z,0
2023-01-25T03:10:46.839Z,0
2023-01-25T03:11:46.840Z,0
2023-01-25T03:12:46.847Z,0
2023-01-25T03:13:46.841Z,0
2023-01-25T03:14:46.849Z,0
2023-01-25T03:15:46.871Z,0
2023-01-25T03:16:46.861Z,0
2023-01-25T03:17:46.849Z,0
2023-01-25T03:18:46.848Z,0
2023-01-25T03:19:46.847Z,0
2023-01-25T03:20:46.847Z,0
2023-01-25T03:21:46.874Z,0
2023-01-25T03:22:46.851Z,0
2023-01-25T03:23:46.888Z,0
2023-01-25T03:24:46.855Z,0
2023-01-25T03:25:46.853Z,0
2023-01-25T03:26:46.858Z,0
2023-01-25T03:27:46.872Z,0
2023-01-25T03:28:46.869Z,0
2023-01-25T03:29:46.858Z,0
2023-01-25T03:30:46.863Z,0
2023-01-25T03:31:46.949Z,0
2023-01-25T03:32:46.864Z,0
2023-01-25T03:33:46.870Z,0
2023-01-25T03:34:46.867Z,0
2023-01-25T03:35:46.903Z,0
2023-01-25T03:36:46.872Z,0
2023-01-25T03:37:46.906Z,0
2023-01-25T03:38:46.887Z,0
2023-01-25T03:39:46.878Z,0
2023-01-25T03:40:46.879Z,0
2023-01-25T03:41:46.881Z,0
2023-01-25T03:42:46.881Z,0
2023-01-25T03:43:46.885Z,0
2023-01-25T03:44:46.885Z,0
2023-01-25T03:45:46.884Z,0
2023-01-25T03:46:46.914Z,0
2023-01-25T03:47:46.892Z,0
2023-01-25T03:48:46.890Z,0
2023-01-25T03:49:46.895Z,0
2023-01-25T03:50:46.894Z,0
2023-01-25T03:51:46.935Z,0
2023-01-25T03:52:46.897Z,0
2023-01-25T03:53:46.965Z,0
2023-01-25T03:54:46.898Z,0
2023-01-25T03:55:46.899Z,0
2023-01-25T03:56:46.905Z,0
2023-01-25T03:57:46.902Z,0
2023-01-25T03:58:46.902Z,0
2023-01-25T03:59:46.905Z,0
2023-01-25T04:00:46.959Z,0
2023-01-25T04:01:46.904Z,0
2023-01-25T04:02:46.916Z,0
2023-01-25T04:03:46.906Z,0
2023-01-25T04:04:46.910Z,0
2023-01-25T04:05:46.911Z,0
2023-01-25T04:06:46.914Z,0
2023-01-25T04:07:46.912Z,0
2023-01-25T04:08:46.916Z,0
2023-01-25T04:09:46.953Z,0
2023-01-25T04:10:46.920Z,0
2023-01-25T04:11:46.919Z,0
2023-01-25T04:12:46.928Z,0
2023-01-25T04:13:46.926Z,0
2023-01-25T04:14:46.923Z,0
2023-01-25T04:15:46.934Z,0
2023-01-25T04:16:46.997Z,0
2023-01-25T04:17:46.929Z,0
2023-01-25T04:18:46.928Z,0
2023-01-25T04:19:46.931Z,0
2023-01-25T04:20:46.940Z,0
2023-01-25T04:21:46.932Z,0
2023-01-25T04:22:46.932Z,0
2023-01-25T04:23:46.984Z,0
2023-01-25T04:24:46.933Z,0
2023-01-25T04:25:46.990Z,0
2023-01-25T04:26:46.937Z,0
2023-01-25T04:27:46.933Z,0
2023-01-25T04:28:46.939Z,0
2023-01-25T04:29:46.933Z,0
2023-01-25T04:30:46.939Z,0
2023-01-25T04:31:47.003Z,0
2023-01-25T04:32:47.031Z,0
2023-01-25T04:33:46.940Z,0
2023-01-25T04:34:46.947Z,0
2023-01-25T04:35:46.940Z,0
2023-01-25T04:36:46.941Z,0
2023-01-25T04:37:46.944Z,0
2023-01-25T04:38:46.948Z,0
2023-01-25T04:39:46.947Z,0
2023-01-25T04:40:46.956Z,0
2023-01-25T04:41:46.976Z,0
2023-01-25T04:42:46.949Z,0
2023-01-25T04:43:46.948Z,0
2023-01-25T04:44:46.952Z,0
2023-01-25T04:45:46.975Z,0
2023-01-25T04:46:46.952Z,0
2023-01-25T04:47:46.970Z,0
2023-01-25T04:48:46.957Z,0
2023-01-25T04:49:46.967Z,0
2023-01-25T04:50:46.954Z,0
2023-01-25T04:51:46.963Z,0
2023-01-25T04:52:46.960Z,0
2023-01-25T04:53:46.960Z,0
2023-01-25T04:54:46.974Z,0
2023-01-25T04:55:46.962Z,0
2023-01-25T04:56:46.965Z,0
2023-01-25T04:57:46.992Z,0
2023-01-25T04:58:46.969Z,0
2023-01-25T04:59:46.967Z,0
2023-01-25T05:00:46.986Z,0
2023-01-25T05:01:46.969Z,0
2023-01-25T05:02:47.088Z,0
2023-01-25T05:03:46.977Z,0
2023-01-25T05:04:46.974Z,0
2023-01-25T05:05:46.978Z,0
2023-01-25T05:06:46.971Z,0
2023-01-25T05:07:46.972Z,0
2023-01-25T05:08:46.973Z,0
2023-01-25T05:09:46.974Z,0
2023-01-25T05:10:46.971Z,0
2023-01-25T05:11:46.984Z,0
2023-01-25T05:12:46.976Z,0
2023-01-25T05:13:47.008Z,0
2023-01-25T05:14:46.979Z,0
2023-01-25T05:15:46.980Z,0
2023-01-25T05:16:47.019Z,0
2023-01-25T05:17:46.979Z,0
2023-01-25T05:18:49.041Z,0
2023-01-25T05:19:46.981Z,0
2023-01-25T05:20:46.977Z,0
2023-01-25T05:21:46.984Z,0
2023-01-25T05:22:46.983Z,0
2023-01-25T05:23:47.094Z,0
2023-01-25T05:24:46.982Z,0
2023-01-25T05:25:46.984Z,0
2023-01-25T05:26:46.983Z,0
2023-01-25T05:27:46.985Z,0
2023-01-25T05:28:46.985Z,0
2023-01-25T05:29:47.015Z,0
2023-01-25T05:30:47.032Z,0
2023-01-25T05:31:47.053Z,0
2023-01-25T05:32:46.984Z,0
2023-01-25T05:33:46.983Z,0
2023-01-25T05:34:46.986Z,0
2023-01-25T05:35:46.998Z,0
2023-01-25T05:36:46.986Z,0
2023-01-25T05:37:46.989Z,0
2023-01-25T05:38:46.989Z,0
2023-01-25T05:39:46.987Z,0
2023-01-25T05:40:47.049Z,0
2023-01-25T05:41:46.987Z,0
2023-01-25T05:42:46.989Z,0
2023-01-25T05:43:46.990Z,0
2023-01-25T05:44:47.855Z,0
2023-01-25T05:45:47.024Z,0
2023-01-25T05:46:46.994Z,0
2023-01-25T05:47:47.000Z,0
2023-01-25T05:48:46.998Z,0
2023-01-25T05:49:47.000Z,0
2023-01-25T05:50:47.003Z,0
2023-01-25T05:51:46.991Z,0
2023-01-25T05:52:46.995Z,0
2023-01-25T05:53:46.991Z,0
2023-01-25T05:54:46.993Z,0
2023-01-25T05:55:46.997Z,0
2023-01-25T05:56:46.991Z,0
2023-01-25T05:57:46.996Z,0
2023-01-25T05:58:46.998Z,0
2023-01-25T05:59:47.008Z,0
2023-01-25T06:00:46.998Z,0
2023-01-25T06:01:47.029Z,0
2023-01-25T06:02:47.155Z,0
2023-01-25T06:03:47.035Z,0
2023-01-25T06:04:47.007Z,0
2023-01-25T06:05:47.011Z,0
2023-01-25T06:06:47.028Z,0
2023-01-25T06:07:47.018Z,0
2023-01-25T06:08:47.018Z,0
2023-01-25T06:09:47.024Z,0
2023-01-25T06:10:47.017Z,0
2023-01-25T06:11:47.032Z,0
2023-01-25T06:12:47.035Z,0
2023-01-25T06:13:47.032Z,0
2023-01-25T06:14:47.029Z,0
2023-01-25T06:15:47.080Z,0
2023-01-25T06:16:47.032Z,0
2023-01-25T06:17:47.056Z,0
2023-01-25T06:18:47.036Z,0
2023-01-25T06:19:47.038Z,0
2023-01-25T06:20:47.039Z,0
2023-01-25T06:21:47.041Z,2
2023-01-25T06:22:47.038Z,2
2023-01-25T06:23:47.065Z,2
2023-01-25T06:24:47.045Z,2
2023-01-25T06:25:47.045Z,2
2023-01-25T06:26:47.043Z,4
2023-01-25T06:27:47.047Z,4
2023-01-25T06:28:47.045Z,4
2023-01-25T06:29:47.042Z,4
2023-01-25T06:30:47.077Z,4
2023-01-25T06:31:47.071Z,9
2023-01-25T06:32:47.050Z,9
2023-01-25T06:33:47.079Z,9
2023-01-25T06:34:47.058Z,9
2023-01-25T06:35:47.057Z,9
2023-01-25T06:36:47.067Z,16
2023-01-25T06:37:47.061Z,16
2023-01-25T06:38:47.059Z,16
2023-01-25T06:39:47.065Z,16
2023-01-25T06:40:47.064Z,16
2023-01-25T06:41:47.086Z,16
2023-01-25T06:42:47.071Z,28
2023-01-25T06:43:47.080Z,28
2023-01-25T06:44:47.072Z,28
2023-01-25T06:45:47.079Z,28
2023-01-25T06:46:47.121Z,28
2023-01-25T06:47:47.076Z,44
2023-01-25T06:48:47.078Z,44
2023-01-25T06:49:47.108Z,44
2023-01-25T06:50:47.084Z,44
2023-01-25T06:51:47.081Z,44
2023-01-25T06:52:47.087Z,64
2023-01-25T06:53:47.104Z,64
2023-01-25T06:54:47.090Z,64
2023-01-25T06:55:47.094Z,64
2023-01-25T06:56:47.093Z,64
2023-01-25T06:57:47.097Z,93
2023-01-25T06:58:47.102Z,93
2023-01-25T06:59:47.102Z,93
2023-01-25T07:00:47.103Z,93
2023-01-25T07:01:47.146Z,93
2023-01-25T07:02:47.155Z,122
2023-01-25T07:03:47.110Z,122
2023-01-25T07:04:47.110Z,122
2023-01-25T07:05:47.148Z,122
2023-01-25T07:06:47.110Z,122
2023-01-25T07:07:47.113Z,155
2023-01-25T07:08:47.112Z,155
2023-01-25T07:09:47.113Z,155
2023-01-25T07:10:47.121Z,155
2023-01-25T07:11:47.118Z,155
2023-01-25T07:12:47.118Z,196
2023-01-25T07:13:47.133Z,196
2023-01-25T07:14:47.123Z,196
2023-01-25T07:15:47.124Z,196
2023-01-25T07:16:47.129Z,196
2023-01-25T07:17:47.132Z,230
2023-01-25T07:18:47.135Z,230
2023-01-25T07:19:47.146Z,230
2023-01-25T07:20:47.138Z,230
2023-01-25T07:21:47.171Z,230
2023-01-25T07:22:47.144Z,276
2023-01-25T07:23:47.179Z,276
2023-01-25T07:24:47.146Z,276
2023-01-25T07:25:47.153Z,276
2023-01-25T07:26:47.151Z,276
2023-01-25T07:27:47.155Z,322
2023-01-25T07:28:47.159Z,322
2023-01-25T07:29:47.156Z,322
2023-01-25T07:30:47.162Z,322
2023-01-25T07:31:47.185Z,322
2023-01-25T07:32:47.184Z,375
2023-01-25T07:33:47.167Z,375
2023-01-25T07:34:47.164Z,375
2023-01-25T07:35:47.166Z,375
2023-01-25T07:36:47.168Z,375
2023-01-25T07:37:47.197Z,413
2023-01-25T07:38:47.173Z,413
2023-01-25T07:39:47.172Z,413
2023-01-25T07:40:47.175Z,413
2023-01-25T07:41:47.174Z,413
2023-01-25T07:42:48.182Z,484
2023-01-25T07:43:47.175Z,484
2023-01-25T07:44:47.179Z,484
2023-01-25T07:45:47.179Z,484
2023-01-25T07:46:47.179Z,484
2023-01-25T07:47:47.181Z,527
2023-01-25T07:48:47.188Z,527
2023-01-25T07:49:47.183Z,527
2023-01-25T07:50:47.184Z,527
2023-01-25T07:51:47.185Z,527
2023-01-25T07:52:47.182Z,580
2023-01-25T07:53:47.210Z,580
2023-01-25T07:54:48.318Z,580
2023-01-25T07:55:47.191Z,580
2023-01-25T07:56:47.199Z,580
2023-01-25T07:57:47.199Z,594
2023-01-25T07:58:47.205Z,594
2023-01-25T07:59:47.199Z,594
2023-01-25T08:00:47.201Z,594
2023-01-25T08:01:47.205Z,594
2023-01-25T08:02:47.204Z,656
2023-01-25T08:03:47.203Z,656
2023-01-25T08:04:47.205Z,656
2023-01-25T08:05:47.206Z,656
2023-01-25T08:06:47.210Z,656
2023-01-25T08:07:47.217Z,742
2023-01-25T08:08:47.220Z,742
2023-01-25T08:09:47.257Z,742
2023-01-25T08:10:47.218Z,742
2023-01-25T08:11:47.219Z,742
2023-01-25T08:12:47.223Z,806
2023-01-25T08:13:47.222Z,806
2023-01-25T08:14:47.228Z,806
2023-01-25T08:15:47.226Z,806
2023-01-25T08:16:47.230Z,806
2023-01-25T08:17:47.227Z,867
2023-01-25T08:18:47.231Z,867
2023-01-25T08:19:47.246Z,867
2023-01-25T08:20:47.235Z,867
2023-01-25T08:21:47.249Z,867
2023-01-25T08:22:47.237Z,946
2023-01-25T08:23:47.279Z,946
2023-01-25T08:24:47.238Z,946
2023-01-25T08:25:47.272Z,946
2023-01-25T08:26:47.239Z,946
2023-01-25T08:27:47.237Z,1050
2023-01-25T08:28:47.236Z,1050
2023-01-25T08:29:47.236Z,1050
2023-01-25T08:30:56.700Z,1050
2023-01-25T08:31:47.273Z,1050
2023-01-25T08:32:48.252Z,1114
2023-01-25T08:33:47.245Z,1114
2023-01-25T08:34:47.246Z,1114
2023-01-25T08:35:47.246Z,1114
2023-01-25T08:36:47.244Z,1114
2023-01-25T08:37:47.255Z,1183
2023-01-25T08:38:47.270Z,1183
2023-01-25T08:39:47.249Z,1183
2023-01-25T08:40:47.251Z,1183
2023-01-25T08:41:47.287Z,1183
2023-01-25T08:42:47.267Z,1246
2023-01-25T08:43:47.289Z,1246
2023-01-25T08:44:47.262Z,1246
2023-01-25T08:45:47.262Z,1246
2023-01-25T08:46:47.263Z,1246
2023-01-25T08:47:47.268Z,1263
2023-01-25T08:48:47.265Z,1263
2023-01-25T08:49:47.269Z,1263
2023-01-25T08:50:47.273Z,1263
2023-01-25T08:51:47.287Z,1263
2023-01-25T08:52:47.276Z,1342
2023-01-25T08:53:47.286Z,1342
2023-01-25T08:54:47.271Z,1342
2023-01-25T08:55:47.287Z,1342
2023-01-25T08:56:47.275Z,1342
2023-01-25T08:57:47.300Z,1385
2023-01-25T08:58:47.304Z,1385
2023-01-25T08:59:47.280Z,1385
2023-01-25T09:00:47.278Z,1385
2023-01-25T09:01:47.288Z,1385
2023-01-25T09:02:47.295Z,1486
2023-01-25T09:03:47.417Z,1486
2023-01-25T09:04:47.285Z,1486
2023-01-25T09:05:47.288Z,1486
2023-01-25T09:06:47.290Z,1486
2023-01-25T09:07:47.291Z,1550
2023-01-25T09:08:47.300Z,1550
2023-01-25T09:09:47.292Z,1550
2023-01-25T09:10:47.291Z,1550
2023-01-25T09:11:47.509Z,1550
2023-01-25T09:12:47.303Z,1659
2023-01-25T09:13:47.325Z,1659
2023-01-25T09:14:47.303Z,1659
2023-01-25T09:15:47.305Z,1659
2023-01-25T09:16:47.300Z,1659
2023-01-25T09:17:47.299Z,1803
2023-01-25T09:18:49.110Z,1803
2023-01-25T09:19:47.306Z,1803
2023-01-25T09:20:47.316Z,1803
2023-01-25T09:21:47.308Z,1803
2023-01-25T09:22:47.306Z,1854
2023-01-25T09:23:50.902Z,1854
2023-01-25T09:24:47.337Z,1854
2023-01-25T09:25:47.308Z,1854
2023-01-25T09:26:55.869Z,1854
2023-01-25T09:27:47.310Z,1920
2023-01-25T09:28:47.314Z,1920
2023-01-25T09:30:00.855Z,1920
2023-01-25T09:30:53.655Z,1920
2023-01-25T09:31:47.392Z,1920
2023-01-25T09:32:47.419Z,1978
2023-01-25T09:33:47.313Z,1978
2023-01-25T09:34:47.317Z,1978
2023-01-25T09:35:47.322Z,1978
2023-01-25T09:36:47.316Z,1978
2023-01-25T09:37:47.316Z,1975
2023-01-25T09:38:47.322Z,1975
2023-01-25T09:39:47.321Z,1975
2023-01-25T09:40:47.317Z,1975
2023-01-25T09:41:47.324Z,1975
2023-01-25T09:42:47.322Z,2153
2023-01-25T09:43:47.326Z,2153
2023-01-25T09:44:47.327Z,2153
2023-01-25T09:45:47.356Z,2153
2023-01-25T09:46:47.330Z,2153
2023-01-25T09:47:47.348Z,2321
2023-01-25T09:48:48.604Z,2321
2023-01-25T09:49:47.333Z,2321
2023-01-25T09:50:47.339Z,2321
2023-01-25T09:51:47.332Z,2321
2023-01-25T09:52:47.334Z,2491
2023-01-25T09:53:47.333Z,2491
2023-01-25T09:54:47.647Z,2491
2023-01-25T09:55:47.337Z,2491
2023-01-25T09:56:47.340Z,2491
2023-01-25T09:57:47.339Z,2549
2023-01-25T09:58:47.334Z,2549
2023-01-25T09:59:47.340Z,2549
2023-01-25T10:00:47.342Z,2549
2023-01-25T10:01:47.527Z,2549
2023-01-25T10:02:47.367Z,2563
2023-01-25T10:03:47.341Z,2563
2023-01-25T10:04:47.343Z,2563
2023-01-25T10:05:47.349Z,2563
2023-01-25T10:07:01.189Z,2563
2023-01-25T10:07:47.351Z,2747
2023-01-25T10:08:47.344Z,2747
2023-01-25T10:09:47.347Z,2747
2023-01-25T10:10:47.347Z,2747
2023-01-25T10:11:47.349Z,2747
2023-01-25T10:12:47.344Z,2687
2023-01-25T10:13:47.348Z,2687
2023-01-25T10:14:47.351Z,2687
2023-01-25T10:15:47.364Z,2687
2023-01-25T10:16:47.356Z,2687
2023-01-25T10:17:47.374Z,2652
2023-01-25T10:18:47.354Z,2652
2023-01-25T10:19:47.358Z,2652
2023-01-25T10:20:47.351Z,2652
2023-01-25T10:21:47.352Z,2652
2023-01-25T10:22:47.357Z,2553
2023-01-25T10:23:47.395Z,2553
2023-01-25T10:24:47.356Z,2553
2023-01-25T10:25:47.354Z,2553
2023-01-25T10:26:47.358Z,2553
2023-01-25T10:27:47.354Z,2633
2023-01-25T10:28:47.362Z,2597
2023-01-25T10:29:47.372Z,2597
2023-01-25T10:30:47.359Z,2597
2023-01-25T10:31:47.438Z,2597
2023-01-25T10:32:54.841Z,2597
2023-01-25T10:33:47.385Z,2633
2023-01-25T10:34:55.664Z,2633
2023-01-25T10:35:47.976Z,2650
2023-01-25T10:36:47.364Z,2650
2023-01-25T10:37:47.367Z,2650
2023-01-25T10:38:47.362Z,2650
2023-01-25T10:39:47.360Z,2650
2023-01-25T10:40:47.361Z,2623
2023-01-25T10:41:48.153Z,2623
2023-01-25T10:42:47.365Z,2623
2023-01-25T10:43:47.365Z,2623
2023-01-25T10:44:47.363Z,2623
2023-01-25T10:45:47.370Z,2730
2023-01-25T10:46:47.393Z,2730
2023-01-25T10:47:47.365Z,2730
2023-01-25T10:48:47.372Z,2730
2023-01-25T10:49:47.514Z,2730
2023-01-25T10:50:48.401Z,2721
2023-01-25T10:51:47.367Z,2750
2023-01-25T10:52:47.369Z,2750
2023-01-25T10:53:47.368Z,2750
2023-01-25T10:54:47.366Z,2750
2023-01-25T10:55:47.365Z,2755
2023-01-25T10:56:47.379Z,2755
2023-01-25T10:57:47.369Z,2755
2023-01-25T10:58:47.366Z,2755
2023-01-25T10:59:47.443Z,2755
2023-01-25T11:00:47.391Z,2781
2023-01-25T11:01:47.430Z,2781
2023-01-25T11:02:47.404Z,2781
2023-01-25T11:03:47.385Z,2781
2023-01-25T11:04:47.369Z,2781
2023-01-25T11:05:47.392Z,2705
2023-01-25T11:06:47.368Z,2705
2023-01-25T11:07:47.374Z,2705
2023-01-25T11:08:47.371Z,2705
2023-01-25T11:09:47.371Z,2705
2023-01-25T11:10:47.375Z,2705
2023-01-25T11:11:47.391Z,2705
2023-01-25T11:12:47.375Z,2705
2023-01-25T11:13:47.375Z,2705
2023-01-25T11:14:47.377Z,2705
2023-01-25T11:15:47.398Z,2754
2023-01-25T11:16:47.401Z,2754
2023-01-25T11:17:48.660Z,2754
2023-01-25T11:18:47.384Z,2754
2023-01-25T11:19:47.383Z,2754
2023-01-25T11:20:47.387Z,2747
2023-01-25T11:21:47.414Z,2747
2023-01-25T11:22:47.389Z,2747
2023-01-25T11:23:49.138Z,2747
2023-01-25T11:24:47.403Z,2747
2023-01-25T11:25:47.390Z,2970
2023-01-25T11:26:47.395Z,2970
2023-01-25T11:27:47.398Z,2970
2023-01-25T11:28:47.401Z,2970
2023-01-25T11:29:47.397Z,2970
2023-01-25T11:30:47.546Z,2775
2023-01-25T11:31:47.445Z,2775
2023-01-25T11:32:47.408Z,2775
2023-01-25T11:33:47.421Z,2775
2023-01-25T11:34:47.406Z,2775
2023-01-25T11:35:47.407Z,2800
2023-01-25T11:36:47.411Z,2800
2023-01-25T11:37:47.443Z,2800
2023-01-25T11:38:47.418Z,2800
2023-01-25T11:39:47.643Z,2800
2023-01-25T11:40:47.448Z,2881
2023-01-25T11:41:47.447Z,2881
2023-01-25T11:42:47.427Z,2881
2023-01-25T11:43:47.443Z,2881
2023-01-25T11:44:47.417Z,2881
2023-01-25T11:45:47.423Z,2886
2023-01-25T11:46:47.492Z,2886
2023-01-25T11:47:47.431Z,2886
2023-01-25T11:48:47.426Z,2886
2023-01-25T11:49:47.428Z,2886
2023-01-25T11:50:47.430Z,2784
2023-01-25T11:51:48.915Z,2784
2023-01-25T11:52:47.439Z,2784
2023-01-25T11:53:47.464Z,2784
2023-01-25T11:54:47.431Z,2784
2023-01-25T11:55:47.435Z,2810
2023-01-25T11:56:47.493Z,2844
2023-01-25T11:57:47.436Z,2844
2023-01-25T11:58:47.439Z,2813
2023-01-25T11:59:47.446Z,2813
2023-01-25T12:00:47.442Z,2877
2023-01-25T12:01:47.445Z,2877
2023-01-25T12:02:47.455Z,2877
2023-01-25T12:03:47.467Z,2877
2023-01-25T12:04:47.449Z,2877
2023-01-25T12:05:47.449Z,2948
2023-01-25T12:06:47.445Z,2948
2023-01-25T12:07:47.454Z,2948
2023-01-25T12:08:47.453Z,2948
2023-01-25T12:09:47.474Z,2948
2023-01-25T12:10:47.462Z,3097
2023-01-25T12:11:47.455Z,3097
2023-01-25T12:12:47.454Z,3097
2023-01-25T12:13:47.489Z,3156
2023-01-25T12:14:47.456Z,3156
2023-01-25T12:15:47.470Z,3156
2023-01-25T12:16:47.459Z,3156
2023-01-25T12:17:47.460Z,3156
2023-01-25T12:18:47.462Z,3292
2023-01-25T12:19:47.462Z,3292
2023-01-25T12:20:47.459Z,3292
2023-01-25T12:21:47.462Z,3292
2023-01-25T12:22:47.472Z,3292
2023-01-25T12:23:47.482Z,3034
2023-01-25T12:24:47.467Z,3034
2023-01-25T12:25:47.487Z,3034
2023-01-25T12:26:47.468Z,3034
2023-01-25T12:27:47.473Z,3034
2023-01-25T12:28:47.467Z,3121
2023-01-25T12:29:47.477Z,3121
2023-01-25T12:30:47.476Z,3121
2023-01-25T12:31:47.572Z,3121
2023-01-25T12:32:47.470Z,3121
2023-01-25T12:33:47.474Z,3148
2023-01-25T12:34:47.475Z,3148
2023-01-25T12:35:47.479Z,3148
2023-01-25T12:36:47.479Z,3087
2023-01-25T12:37:47.478Z,3087
2023-01-25T12:38:47.490Z,3062
2023-01-25T12:39:47.478Z,3062
2023-01-25T12:40:47.480Z,3062
2023-01-25T12:41:47.502Z,3062
2023-01-25T12:42:47.516Z,3062
2023-01-25T12:43:47.481Z,2994
2023-01-25T12:44:47.487Z,2994
2023-01-25T12:45:47.483Z,2994
2023-01-25T12:46:47.507Z,2994
2023-01-25T12:47:47.486Z,2994
2023-01-25T12:48:47.515Z,2550
2023-01-25T12:49:47.485Z,2550
2023-01-25T12:50:47.499Z,2550
2023-01-25T12:51:47.489Z,2550
2023-01-25T12:52:47.486Z,2550
2023-01-25T12:53:47.494Z,2295
2023-01-25T12:54:47.490Z,2295
2023-01-25T12:55:47.494Z,2295
2023-01-25T12:56:47.500Z,2295
2023-01-25T12:57:47.520Z,2295
2023-01-25T12:58:47.498Z,2109
2023-01-25T12:59:47.499Z,2109
2023-01-25T13:00:47.518Z,2109
2023-01-25T13:01:47.553Z,2109
2023-01-25T13:02:47.500Z,2109
2023-01-25T13:03:47.505Z,2128
2023-01-25T13:04:47.506Z,2128
2023-01-25T13:05:47.509Z,2128
2023-01-25T13:06:47.507Z,2128
2023-01-25T13:07:47.513Z,2128
2023-01-25T13:08:48.890Z,2177
2023-01-25T13:09:47.513Z,2177
2023-01-25T13:10:47.517Z,2177
2023-01-25T13:11:47.523Z,2177
2023-01-25T13:12:47.522Z,2177
2023-01-25T13:13:47.543Z,2143
2023-01-25T13:14:47.525Z,2143
2023-01-25T13:15:47.524Z,2143
2023-01-25T13:16:48.091Z,2143
2023-01-25T13:17:47.520Z,2143
2023-01-25T13:18:47.531Z,2183
2023-01-25T13:19:47.532Z,2183
2023-01-25T13:20:47.537Z,2183
2023-01-25T13:21:47.554Z,2183
2023-01-25T13:22:47.532Z,2183
2023-01-25T13:23:47.693Z,2249
2023-01-25T13:24:47.552Z,2249
2023-01-25T13:25:47.537Z,2249
2023-01-25T13:26:47.537Z,2249
2023-01-25T13:27:47.539Z,2275
2023-01-25T13:28:47.540Z,2275
2023-01-25T13:29:47.565Z,2275
2023-01-25T13:30:47.544Z,2275
2023-01-25T13:31:52.280Z,2275
2023-01-25T13:32:47.547Z,2203
2023-01-25T13:33:47.553Z,2203
2023-01-25T13:34:47.556Z,2203
2023-01-25T13:35:47.548Z,2203
2023-01-25T13:36:47.554Z,2203
2023-01-25T13:37:47.551Z,2247
2023-01-25T13:38:47.561Z,2247
2023-01-25T13:39:47.562Z,2247
2023-01-25T13:40:47.555Z,2247
2023-01-25T13:41:47.559Z,2247
2023-01-25T13:42:47.559Z,2088
2023-01-25T13:43:47.556Z,2088
2023-01-25T13:44:48.088Z,2088
2023-01-25T13:45:47.696Z,2088
2023-01-25T13:46:47.561Z,2088
2023-01-25T13:47:47.566Z,1845
2023-01-25T13:48:47.563Z,1845
2023-01-25T13:49:47.580Z,1845
2023-01-25T13:50:47.566Z,1845
2023-01-25T13:51:47.569Z,1845
2023-01-25T13:52:47.570Z,1659
2023-01-25T13:53:47.573Z,1659
2023-01-25T13:54:47.571Z,1659
2023-01-25T13:55:47.568Z,1659
2023-01-25T13:56:47.594Z,1659
2023-01-25T13:57:47.581Z,1556
2023-01-25T13:58:47.579Z,1556
2023-01-25T13:59:47.598Z,1556
2023-01-25T14:00:47.626Z,1556
2023-01-25T14:01:47.655Z,1556
2023-01-25T14:02:47.583Z,1353